createdAt,value
2023-06-29T02:09:45.292Z,25.72
2023-06-29T02:12:04.306Z,25.69
2023-06-29T02:13:04.408Z,25.70
2023-06-29T02:14:04.216Z,25.69
2023-06-29T02:15:05.265Z,25.68
2023-06-29T02:16:05.266Z,25.66
2023-06-29T02:17:05.200Z,25.68
2023-06-29T02:18:05.256Z,25.69
2023-06-29T05:03:39.026Z,25.72
2023-06-29T05:04:39.990Z,25.72
2023-06-29T05:05:39.025Z,25.70
2023-06-29T05:06:40.069Z,25.72
2023-06-29T05:07:40.129Z,25.73
2023-06-29T05:08:39.163Z,25.73
2023-06-29T05:09:39.230Z,25.72
2023-06-29T05:10:40.250Z,25.76
2023-06-29T05:11:40.311Z,25.76
2023-06-29T05:12:39.360Z,25.73
2023-06-29T05:13:39.414Z,25.77
2023-06-29T05:14:40.469Z,25.75
2023-06-29T05:15:40.537Z,25.79
2023-06-29T05:16:39.593Z,25.77
2023-06-29T05:17:40.617Z,25.75
2023-06-29T05:18:39.614Z,25.77
2023-06-29T05:19:40.689Z,25.79
2023-06-29T05:20:39.704Z,25.79
2023-06-29T05:21:39.758Z,25.82
2023-06-29T05:22:40.797Z,25.80
2023-06-29T05:23:39.851Z,25.77
2023-06-29T05:24:40.875Z,25.80
2023-06-29T05:25:41.049Z,25.82
2023-06-29T05:26:40.942Z,25.82
2023-06-29T05:27:40.986Z,25.73
2023-06-29T05:28:41.358Z,25.69
2023-06-29T05:29:41.028Z,25.52
2023-06-29T05:30:41.015Z,25.44
2023-06-29T05:31:41.042Z,25.37
2023-06-29T05:32:39.997Z,25.28
2023-06-29T05:33:41.078Z,25.13
2023-06-29T05:34:41.005Z,25.06
2023-06-29T05:35:41.171Z,25.00
2023-06-29T05:36:40.950Z,24.96
2023-06-29T05:37:39.961Z,24.93
2023-06-29T05:38:40.978Z,24.90
2023-06-29T05:39:40.953Z,24.94
2023-06-29T05:40:44.057Z,24.97
2023-06-29T05:41:40.935Z,24.98
2023-06-29T05:42:39.928Z,25.03
2023-06-29T05:43:40.914Z,25.07
2023-06-29T05:44:39.942Z,25.07
2023-06-29T05:45:40.951Z,25.18
2023-06-29T05:46:40.904Z,25.25
2023-06-29T05:47:40.905Z,25.30
2023-06-29T05:48:39.887Z,25.31
2023-06-29T05:49:39.872Z,25.41
2023-06-29T05:50:40.917Z,25.42
2023-06-29T05:51:39.865Z,25.59
2023-06-29T05:52:40.848Z,25.62
2023-06-29T05:53:40.884Z,25.72
2023-06-29T05:54:39.836Z,25.80
2023-06-29T05:55:39.859Z,25.82
2023-06-29T05:56:40.820Z,25.76
2023-06-29T05:57:39.822Z,25.89
2023-06-29T05:58:39.792Z,25.92
2023-06-29T05:59:40.804Z,26.01
2023-06-29T06:00:40.833Z,26.03
2023-06-29T06:01:39.822Z,26.11
2023-06-29T06:02:39.812Z,26.17
2023-06-29T06:03:40.809Z,26.14
2023-06-29T06:04:39.767Z,26.16
2023-06-29T06:05:40.749Z,26.26
2023-06-29T06:06:40.774Z,26.30
2023-06-29T06:07:39.782Z,26.35
2023-06-29T06:08:40.745Z,26.47
2023-06-29T06:09:40.743Z,26.47
2023-06-29T06:10:40.804Z,26.59
2023-06-29T06:11:40.783Z,26.56
2023-06-29T06:12:40.713Z,26.60
2023-06-29T06:13:40.724Z,26.54
2023-06-29T06:14:40.790Z,26.54
2023-06-29T06:15:40.916Z,26.63
2023-06-29T06:16:41.476Z,26.60
2023-06-29T06:17:41.013Z,26.72
2023-06-29T06:18:41.038Z,26.81
2023-06-29T06:19:41.075Z,26.78
2023-06-29T06:20:40.124Z,26.85
2023-06-29T06:21:40.155Z,26.75
2023-06-29T06:22:41.260Z,26.87
2023-06-29T06:23:40.314Z,26.79
2023-06-29T06:24:40.349Z,26.83
2023-06-29T06:25:40.364Z,26.82
2023-06-29T06:26:41.434Z,26.75
2023-06-29T06:27:40.554Z,26.72
2023-06-29T06:28:41.592Z,26.75
2023-06-29T06:29:40.731Z,26.81
2023-06-29T06:30:42.264Z,26.79
2023-06-29T06:31:41.994Z,26.85
2023-06-29T06:32:41.859Z,26.82
2023-06-29T06:33:40.844Z,26.83
2023-06-29T06:34:41.881Z,26.89
2023-06-29T06:35:42.073Z,26.92
2023-06-29T06:36:41.004Z,26.83
2023-06-29T06:37:42.066Z,26.82
2023-06-29T06:38:50.203Z,26.78
2023-06-29T06:39:42.107Z,26.85
2023-06-29T06:40:41.124Z,26.86
2023-06-29T06:41:41.090Z,26.92
2023-06-29T06:42:42.111Z,26.96
2023-06-29T06:43:42.104Z,27.03
2023-06-29T06:44:42.086Z,26.99
2023-06-29T06:45:42.060Z,27.00
2023-06-29T06:46:41.103Z,26.94
2023-06-29T06:47:41.074Z,27.03
2023-06-29T06:48:42.047Z,26.99
2023-06-29T06:49:41.030Z,27.11
2023-06-29T06:50:42.379Z,27.07
2023-06-29T06:51:42.038Z,27.13
2023-06-29T06:52:42.033Z,27.14
2023-06-29T06:53:41.017Z,27.24
2023-06-29T06:54:42.027Z,27.28
2023-06-29T06:55:42.000Z,27.20
2023-06-29T06:56:40.994Z,27.24
2023-06-29T06:57:40.978Z,27.30
2023-06-29T06:58:41.989Z,27.41
2023-06-29T06:59:41.005Z,27.41
2023-06-29T07:00:41.033Z,27.41
2023-06-29T07:01:41.966Z,27.44
2023-06-29T07:02:42.002Z,27.54
2023-06-29T07:03:40.935Z,27.59
2023-06-29T07:04:41.945Z,27.56
2023-06-29T07:05:41.958Z,27.65
2023-06-29T07:06:42.033Z,27.62
2023-06-29T07:07:41.118Z,27.65
2023-06-29T07:08:41.917Z,27.59
2023-06-29T07:09:40.939Z,27.68
2023-06-29T07:10:42.248Z,27.71
2023-06-29T07:11:41.888Z,27.72
2023-06-29T07:12:40.890Z,27.61
2023-06-29T07:13:41.879Z,27.66
2023-06-29T07:14:40.888Z,27.64
2023-06-29T07:15:40.889Z,27.73
2023-06-29T07:16:41.918Z,27.73
2023-06-29T07:17:40.905Z,27.72
2023-06-29T07:18:41.844Z,27.85
2023-06-29T07:21:40.934Z,27.90
2023-06-29T07:24:40.813Z,27.99
2023-06-29T07:25:42.079Z,27.99
2023-06-29T07:26:41.836Z,28.01
2023-06-29T07:27:41.778Z,28.01
2023-06-29T07:28:41.792Z,28.04
2023-06-29T07:29:41.770Z,28.06
2023-06-29T07:30:40.819Z,27.95
2023-06-29T07:31:41.766Z,27.58
2023-06-29T07:32:41.850Z,27.17
2023-06-29T07:33:40.740Z,26.96
2023-06-29T07:34:40.757Z,26.86
2023-06-29T07:35:40.910Z,26.85
2023-06-29T07:36:41.730Z,26.86
2023-06-29T07:37:41.714Z,26.92
2023-06-29T07:38:41.732Z,26.94
2023-06-29T07:39:41.712Z,27.00
2023-06-29T07:40:40.711Z,27.04
2023-06-29T07:41:41.689Z,27.01
2023-06-29T07:42:41.740Z,27.04
2023-06-29T07:43:41.676Z,27.07
2023-06-29T07:44:41.679Z,27.09
2023-06-29T07:45:41.761Z,27.04
2023-06-29T07:46:41.659Z,27.07
2023-06-29T07:47:41.763Z,26.94
2023-06-29T07:48:41.931Z,26.86
2023-06-29T07:49:41.730Z,26.86
2023-06-29T07:50:41.641Z,26.85
2023-06-29T07:51:41.640Z,26.75
2023-06-29T07:52:41.639Z,26.82
2023-06-29T07:53:41.623Z,26.76
2023-06-29T07:54:41.713Z,26.76
2023-06-29T07:55:41.661Z,26.72
2023-06-29T07:58:40.808Z,26.76
2023-06-29T07:59:40.716Z,26.75
2023-06-29T08:00:41.602Z,26.69
2023-06-29T08:01:40.635Z,26.75
2023-06-29T08:02:40.689Z,26.82
2023-06-29T08:03:59.949Z,26.90
2023-06-29T08:07:40.609Z,27.26
2023-06-29T08:08:40.679Z,27.33
2023-06-29T08:09:41.576Z,27.44
2023-06-29T08:10:41.655Z,27.48
2023-06-29T08:11:41.524Z,27.54
2023-06-29T08:12:40.534Z,27.61
2023-06-29T08:13:41.516Z,27.64
2023-06-29T08:14:41.534Z,27.71
2023-06-29T08:15:41.509Z,27.73
2023-06-29T08:16:40.565Z,27.78
2023-06-29T08:17:41.495Z,27.73
2023-06-29T08:18:41.515Z,27.81
2023-06-29T08:19:41.476Z,27.82
2023-06-29T08:20:40.471Z,27.89
2023-06-29T08:21:41.466Z,27.92
2023-06-29T08:22:41.483Z,27.95
2023-06-29T08:23:41.457Z,27.99
2023-06-29T08:24:40.484Z,27.96
2023-06-29T08:25:41.429Z,27.95
2023-06-29T08:26:41.415Z,27.95
2023-06-29T08:27:41.416Z,27.97
2023-06-29T08:28:40.432Z,27.97
2023-06-29T08:29:40.408Z,28.01
2023-06-29T08:30:41.482Z,28.00
2023-06-29T08:31:40.454Z,28.09
2023-06-29T08:32:41.409Z,28.09
2023-06-29T08:33:40.397Z,28.11
2023-06-29T08:34:41.375Z,28.10
2023-06-29T08:35:40.362Z,28.16
2023-06-29T08:36:41.373Z,28.20
2023-06-29T08:37:41.352Z,28.21
2023-06-29T08:38:40.339Z,28.23
2023-06-29T08:39:41.348Z,28.17
2023-06-29T08:40:40.373Z,28.07
2023-06-29T08:41:41.307Z,28.03
2023-06-29T08:42:41.308Z,28.04
2023-06-29T08:43:40.307Z,27.99
2023-06-29T08:44:40.752Z,27.92
2023-06-29T08:45:41.357Z,27.92
2023-06-29T08:46:40.535Z,27.79
2023-06-29T08:47:40.373Z,27.76
2023-06-29T08:48:41.348Z,27.75
2023-06-29T08:49:41.354Z,27.66
2023-06-29T08:50:41.484Z,27.73
2023-06-29T08:51:41.431Z,27.73
2023-06-29T08:52:41.500Z,27.61
2023-06-29T08:53:41.505Z,27.56
2023-06-29T08:54:41.529Z,27.58
2023-06-29T08:55:41.585Z,27.58
2023-06-29T08:56:40.621Z,27.52
2023-06-29T08:57:41.703Z,27.40
2023-06-29T08:58:40.723Z,27.45
2023-06-29T08:59:41.772Z,27.48
2023-06-29T09:00:41.801Z,27.48
2023-06-29T09:01:41.837Z,27.65
2023-06-29T09:02:40.974Z,27.68
2023-06-29T09:03:41.991Z,27.76
2023-06-29T09:04:40.861Z,27.83
2023-06-29T09:05:41.835Z,27.88
2023-06-29T09:06:40.894Z,27.97
2023-06-29T09:07:40.964Z,28.00
2023-06-29T09:08:40.933Z,28.07
2023-06-29T09:09:41.974Z,28.13
2023-06-29T09:10:42.312Z,28.18
2023-06-29T09:11:43.802Z,28.09
2023-06-29T09:12:41.096Z,28.20
2023-06-29T09:13:42.104Z,28.26
2023-06-29T09:14:41.088Z,28.17
2023-06-29T09:15:42.132Z,28.06
2023-06-29T09:16:42.064Z,28.21
2023-06-29T09:17:42.101Z,28.18
2023-06-29T09:18:42.075Z,28.16
2023-06-29T09:19:42.042Z,28.11
2023-06-29T09:20:42.382Z,28.09
2023-06-29T09:21:42.018Z,28.14
2023-06-29T09:22:41.024Z,28.20
2023-06-29T09:23:41.005Z,28.23
2023-06-29T09:24:57.296Z,28.20
2023-06-29T09:25:42.061Z,28.30
2023-06-29T09:26:41.985Z,28.28
2023-06-29T09:27:41.992Z,28.23
2023-06-29T09:28:42.004Z,28.24
2023-06-29T09:29:40.990Z,28.24
2023-06-29T09:30:42.180Z,28.23
2023-06-29T09:31:41.992Z,28.23
2023-06-29T09:32:41.983Z,28.24
2023-06-29T09:33:41.958Z,28.20
2023-06-29T09:34:40.980Z,28.24
2023-06-29T09:35:41.954Z,28.23
2023-06-29T09:36:40.926Z,28.26
2023-06-29T09:37:41.927Z,28.27
2023-06-29T09:38:41.924Z,28.37
2023-06-29T09:39:41.930Z,28.41
2023-06-29T09:40:42.080Z,28.47
2023-06-29T09:41:41.911Z,28.45
2023-06-29T09:42:41.880Z,28.43
2023-06-29T09:43:41.895Z,28.40
2023-06-29T09:44:41.892Z,28.44
2023-06-29T09:45:41.888Z,28.52
2023-06-29T09:46:41.928Z,28.59
2023-06-29T09:49:40.915Z,28.44
2023-06-29T09:50:42.053Z,28.37
2023-06-29T09:51:41.818Z,28.33
2023-06-29T09:52:40.841Z,28.30
2023-06-29T09:53:41.805Z,28.27
2023-06-29T09:54:40.804Z,28.17
2023-06-29T09:55:41.827Z,28.16
2023-06-29T09:56:41.781Z,28.09
2023-06-29T09:57:41.802Z,28.09
2023-06-29T09:58:40.788Z,28.03
2023-06-29T09:59:40.804Z,28.03
2023-06-29T10:00:41.063Z,28.04
2023-06-29T10:01:41.941Z,28.00
2023-06-29T10:02:40.833Z,28.01
2023-06-29T10:03:41.811Z,28.00
2023-06-29T10:04:41.779Z,27.96
2023-06-29T10:05:41.776Z,27.99
2023-06-29T10:06:40.786Z,27.99
2023-06-29T10:07:40.881Z,27.96
2023-06-29T10:08:41.782Z,27.97
2023-06-29T10:09:41.798Z,27.96
2023-06-29T10:10:40.780Z,27.96
2023-06-29T10:11:41.890Z,27.93
2023-06-29T10:12:40.731Z,27.92
2023-06-29T10:13:40.730Z,27.90
2023-06-29T10:14:40.747Z,27.88
2023-06-29T10:15:40.730Z,27.89
2023-06-29T10:16:41.688Z,27.86
2023-06-29T10:17:41.832Z,27.88
2023-06-29T10:18:41.674Z,27.86
2023-06-29T10:19:40.699Z,27.83
2023-06-29T10:20:40.669Z,27.85
2023-06-29T10:21:41.648Z,27.85
2023-06-29T10:22:41.683Z,27.83
2023-06-29T10:23:40.641Z,27.82
2023-06-29T10:24:40.669Z,27.82
2023-06-29T10:25:40.608Z,27.83
2023-06-29T10:26:40.590Z,27.81
2023-06-29T10:27:40.606Z,27.83
2023-06-29T10:28:40.595Z,27.82
2023-06-29T10:29:41.569Z,27.82
2023-06-29T10:30:41.799Z,27.79
2023-06-29T10:31:41.563Z,27.81
2023-06-29T10:32:41.627Z,27.81
2023-06-29T10:33:41.546Z,27.78
2023-06-29T10:34:41.533Z,27.79
2023-06-29T10:35:41.521Z,27.78
2023-06-29T10:36:41.544Z,27.75
2023-06-29T10:37:41.510Z,27.78
2023-06-29T10:38:41.527Z,27.79
2023-06-29T10:39:41.487Z,27.78
2023-06-29T10:40:41.715Z,27.78
2023-06-29T10:41:40.474Z,27.78
2023-06-29T10:42:40.504Z,27.79
2023-06-29T10:43:41.486Z,27.82
2023-06-29T10:44:41.557Z,27.78
2023-06-29T10:45:41.793Z,27.75
2023-06-29T10:46:41.499Z,27.76
2023-06-29T10:47:40.488Z,27.81
2023-06-29T10:48:48.389Z,27.82
2023-06-29T10:49:41.440Z,27.83
2023-06-29T10:50:41.440Z,27.85
2023-06-29T10:51:41.458Z,27.83
2023-06-29T10:52:40.404Z,27.85
2023-06-29T10:53:41.453Z,27.85
2023-06-29T10:54:41.480Z,27.82
2023-06-29T10:55:40.402Z,27.79
2023-06-29T10:56:41.395Z,27.78
2023-06-29T10:57:41.385Z,27.78
2023-06-29T10:58:41.366Z,27.81
2023-06-29T10:59:41.355Z,27.81
2023-06-29T11:00:41.418Z,27.79
2023-06-29T11:01:41.429Z,27.82
2023-06-29T11:02:40.352Z,27.81
2023-06-29T11:03:40.422Z,27.81
2023-06-29T11:04:41.351Z,27.83
2023-06-29T11:05:41.323Z,27.81
2023-06-29T11:06:40.319Z,27.81
2023-06-29T11:07:40.545Z,27.82
2023-06-29T11:08:41.301Z,27.78
2023-06-29T11:09:40.294Z,27.81
2023-06-29T11:10:41.359Z,27.81
2023-06-29T11:11:41.302Z,27.76
2023-06-29T11:12:40.290Z,27.75
2023-06-29T11:13:40.281Z,27.76
2023-06-29T11:14:41.284Z,27.76
2023-06-29T11:15:41.256Z,27.76
2023-06-29T11:16:41.289Z,27.76
2023-06-29T11:17:40.331Z,27.69
2023-06-29T11:18:40.246Z,27.71
2023-06-29T11:19:40.232Z,27.72
2023-06-29T11:20:41.228Z,27.72
2023-06-29T11:21:41.213Z,27.72
2023-06-29T11:22:41.216Z,27.73
2023-06-29T11:23:41.208Z,27.73
2023-06-29T11:24:41.212Z,27.76
2023-06-29T11:25:40.196Z,27.73
2023-06-29T11:26:40.269Z,27.73
2023-06-29T11:27:41.192Z,27.69
2023-06-29T11:28:41.201Z,27.75
2023-06-29T11:29:41.175Z,27.76
2023-06-29T11:30:41.204Z,27.75
2023-06-29T11:31:40.227Z,27.75
2023-06-29T11:32:41.218Z,27.75
2023-06-29T11:33:40.170Z,27.76
2023-06-29T11:34:40.177Z,27.79
2023-06-29T11:35:41.248Z,27.78
2023-06-29T11:36:41.191Z,27.76
2023-06-29T11:37:40.237Z,27.76
2023-06-29T11:38:41.321Z,27.76
2023-06-29T11:39:40.233Z,27.76
2023-06-29T11:40:41.237Z,27.78
2023-06-29T11:41:41.263Z,27.78
2023-06-29T11:42:41.347Z,27.72
2023-06-29T11:43:41.284Z,27.75
2023-06-29T11:44:41.268Z,27.73
2023-06-29T11:45:41.299Z,27.73
2023-06-29T11:46:41.349Z,27.72
2023-06-29T11:47:41.375Z,27.75
2023-06-29T11:48:40.314Z,27.72
2023-06-29T11:49:41.306Z,27.76
2023-06-29T11:50:41.380Z,27.75
2023-06-29T11:51:40.640Z,27.76
2023-06-29T11:52:40.346Z,27.75
2023-06-29T11:53:40.371Z,27.75
2023-06-29T11:54:40.392Z,27.75
2023-06-29T11:55:40.384Z,27.73
2023-06-29T11:56:41.375Z,27.76
2023-06-29T11:57:41.385Z,27.75
2023-06-29T11:58:40.406Z,27.76
2023-06-29T11:59:41.370Z,27.76
2023-06-29T12:00:41.505Z,27.79
2023-06-29T12:01:41.397Z,27.79
2023-06-29T12:02:41.436Z,27.78
2023-06-29T12:03:41.478Z,27.79
2023-06-29T12:04:41.528Z,27.79
2023-06-29T12:05:40.436Z,27.78
2023-06-29T12:06:40.474Z,27.82
2023-06-29T12:07:41.542Z,27.81
2023-06-29T12:08:41.540Z,27.79
2023-06-29T12:09:41.469Z,27.78
2023-06-29T12:10:40.510Z,27.78
2023-06-29T12:11:41.475Z,27.75
2023-06-29T12:12:40.481Z,27.78
2023-06-29T12:13:40.480Z,27.78
2023-06-29T12:14:41.513Z,27.78
2023-06-29T12:18:40.579Z,27.78
2023-06-29T12:19:51.195Z,27.76
2023-06-29T12:20:41.801Z,27.75
2023-06-29T12:21:42.038Z,27.76
2023-06-29T12:22:40.444Z,27.78
2023-06-29T12:23:40.440Z,27.73
2023-06-29T12:24:41.416Z,27.76
2023-06-29T12:25:41.425Z,27.76
2023-06-29T12:26:40.397Z,27.73
2023-06-29T12:27:40.679Z,27.75
2023-06-29T12:28:40.399Z,27.71
2023-06-29T12:29:41.378Z,27.82
2023-06-29T12:30:41.402Z,27.88
2023-06-29T12:31:41.399Z,27.95
2023-06-29T12:32:41.371Z,27.95
2023-06-29T12:33:40.370Z,27.99
2023-06-29T12:34:40.337Z,27.97
2023-06-29T12:35:41.339Z,27.95
2023-06-29T12:36:41.332Z,27.96
2023-06-29T12:37:41.338Z,27.93
2023-06-29T12:38:41.336Z,27.93
2023-06-29T12:39:41.312Z,27.90
2023-06-29T12:40:41.322Z,27.90
2023-06-29T12:41:40.310Z,27.86
2023-06-29T12:42:41.304Z,27.86
2023-06-29T12:43:40.297Z,27.82
2023-06-29T12:44:41.291Z,27.82
2023-06-29T12:45:41.294Z,27.81
2023-06-29T12:46:40.311Z,27.79
2023-06-29T12:47:40.330Z,27.78
2023-06-29T12:48:41.261Z,27.76
2023-06-29T12:49:41.276Z,27.75
2023-06-29T12:50:40.263Z,27.73
2023-06-29T12:51:41.250Z,27.72
2023-06-29T12:52:41.242Z,27.75
2023-06-29T12:53:40.233Z,27.71
2023-06-29T12:54:40.234Z,27.73
2023-06-29T12:55:41.211Z,27.71
2023-06-29T12:56:40.209Z,27.72
2023-06-29T12:57:40.224Z,27.68
2023-06-29T12:58:40.208Z,27.69
2023-06-29T12:59:41.208Z,27.69
2023-06-29T13:00:40.245Z,27.69
2023-06-29T13:01:41.304Z,27.69
2023-06-29T13:02:41.392Z,27.68
2023-06-29T13:03:40.344Z,27.69
2023-06-29T13:04:40.381Z,27.68
2023-06-29T13:05:41.258Z,27.69
2023-06-29T13:06:40.274Z,27.69
2023-06-29T13:07:41.320Z,27.69
2023-06-29T13:08:41.275Z,27.66
2023-06-29T13:09:40.291Z,27.66
2023-06-29T13:10:41.295Z,27.68
2023-06-29T13:11:40.307Z,27.66
2023-06-29T13:12:40.313Z,27.66
2023-06-29T13:13:40.356Z,27.65
2023-06-29T13:14:40.316Z,27.65
2023-06-29T13:15:40.319Z,27.65
2023-06-29T13:16:40.370Z,27.65
2023-06-29T13:17:41.360Z,27.68
2023-06-29T13:18:41.393Z,27.66
2023-06-29T13:19:41.375Z,27.62
2023-06-29T13:20:41.395Z,27.68
2023-06-29T13:21:41.433Z,27.65
2023-06-29T13:22:41.417Z,27.66
2023-06-29T13:23:41.419Z,27.64
2023-06-29T13:24:41.442Z,27.66
2023-06-29T13:25:41.430Z,27.68
2023-06-29T13:26:41.451Z,27.65
2023-06-29T13:27:40.453Z,27.65
2023-06-29T13:28:41.478Z,27.64
2023-06-29T13:29:41.494Z,27.66
2023-06-29T13:30:40.532Z,27.62
2023-06-29T13:31:40.524Z,27.65
2023-06-29T13:32:41.545Z,27.66
2023-06-29T13:33:40.557Z,27.64
2023-06-29T13:34:41.657Z,27.64
2023-06-29T13:35:41.598Z,27.65
2023-06-29T13:36:41.608Z,27.64
2023-06-29T13:37:41.635Z,27.62
2023-06-29T13:38:41.636Z,27.65
2023-06-29T13:39:40.649Z,27.64
2023-06-29T13:40:40.683Z,27.64
2023-06-29T13:41:41.676Z,27.64
2023-06-29T13:42:41.675Z,27.64
2023-06-29T13:43:41.695Z,27.64
2023-06-29T13:44:41.721Z,27.65
2023-06-29T13:45:40.736Z,27.64
2023-06-29T13:46:41.751Z,27.66
2023-06-29T13:47:40.810Z,27.66
2023-06-29T13:48:41.810Z,27.64
2023-06-29T13:49:40.772Z,27.66
2023-06-29T13:50:42.252Z,27.68
2023-06-29T13:51:40.795Z,27.66
2023-06-29T13:52:40.808Z,27.68
2023-06-29T13:53:40.816Z,27.66
2023-06-29T13:54:40.828Z,27.66
2023-06-29T13:55:40.841Z,27.64
2023-06-29T13:56:41.924Z,27.65
2023-06-29T13:57:40.860Z,27.65
2023-06-29T13:58:40.858Z,27.65
2023-06-29T13:59:40.886Z,27.65
2023-06-29T14:00:40.877Z,27.66
2023-06-29T14:01:41.118Z,27.68
2023-06-29T14:02:40.925Z,27.65
2023-06-29T14:03:40.980Z,27.66
2023-06-29T14:04:41.934Z,27.65
2023-06-29T14:05:40.941Z,27.68
2023-06-29T14:06:40.993Z,27.66
2023-06-29T14:07:41.033Z,27.68
2023-06-29T14:08:41.971Z,27.68
2023-06-29T14:09:41.984Z,27.65
2023-06-29T14:10:40.981Z,27.69
2023-06-29T14:11:42.010Z,27.69
2023-06-29T14:12:41.001Z,27.69
2023-06-29T14:13:42.009Z,27.71
2023-06-29T14:14:41.041Z,27.71
2023-06-29T14:15:41.061Z,27.71
2023-06-29T14:16:42.080Z,27.72
2023-06-29T14:17:41.224Z,27.71
2023-06-29T14:18:41.288Z,27.66
2023-06-29T14:19:41.084Z,27.69
2023-06-29T14:20:41.093Z,27.72
2023-06-29T14:21:41.076Z,27.69
2023-06-29T14:22:41.141Z,27.72
2023-06-29T14:23:41.091Z,27.72
2023-06-29T14:24:42.083Z,27.71
2023-06-29T14:25:41.117Z,27.71
2023-06-29T14:26:41.108Z,27.72
2023-06-29T14:27:41.119Z,27.69
2023-06-29T14:28:41.104Z,27.71
2023-06-29T14:29:42.118Z,27.69
2023-06-29T14:30:41.162Z,27.69
2023-06-29T14:31:42.171Z,27.68
2023-06-29T14:32:42.209Z,27.68
2023-06-29T14:33:41.272Z,27.68
2023-06-29T14:34:41.174Z,27.69
2023-06-29T14:35:41.200Z,27.66
2023-06-29T14:36:42.203Z,27.66
2023-06-29T14:37:41.238Z,27.65
2023-06-29T14:38:41.271Z,27.65
2023-06-29T14:39:42.259Z,27.66
2023-06-29T14:40:42.283Z,27.66
2023-06-29T14:41:42.277Z,27.68
2023-06-29T14:42:41.297Z,27.68
2023-06-29T14:43:42.301Z,27.68
2023-06-29T14:44:42.156Z,27.65
2023-06-29T14:45:42.354Z,27.65
2023-06-29T14:46:42.484Z,27.66
2023-06-29T14:47:41.349Z,27.65
2023-06-29T14:48:42.304Z,27.69
2023-06-29T14:49:41.270Z,27.66
2023-06-29T14:50:42.264Z,27.68
2023-06-29T14:51:42.266Z,27.68
2023-06-29T14:52:42.259Z,27.66
2023-06-29T14:53:42.257Z,27.68
2023-06-29T14:54:41.287Z,27.65
2023-06-29T14:55:42.257Z,27.65
2023-06-29T14:56:41.291Z,27.62
2023-06-29T14:57:42.244Z,27.68
2023-06-29T14:58:42.338Z,27.68
2023-06-29T14:59:41.290Z,27.66
2023-06-29T15:00:41.208Z,27.66
2023-06-29T15:01:42.228Z,27.68
2023-06-29T15:02:42.290Z,27.64
2023-06-29T15:03:41.257Z,27.66
2023-06-29T15:04:41.186Z,27.65
2023-06-29T15:05:42.170Z,27.68
2023-06-29T15:06:42.163Z,27.65
2023-06-29T15:07:41.231Z,27.65
2023-06-29T15:08:42.147Z,27.66
2023-06-29T15:09:41.155Z,27.65
2023-06-29T15:10:42.154Z,27.64
2023-06-29T15:11:42.148Z,27.65
2023-06-29T15:12:41.137Z,27.65
2023-06-29T15:13:42.128Z,27.64
2023-06-29T15:14:41.121Z,27.65
2023-06-29T15:15:41.104Z,27.62
2023-06-29T15:16:42.301Z,27.64
2023-06-29T15:17:41.107Z,27.62
2023-06-29T15:18:54.466Z,27.64
2023-06-29T15:19:42.086Z,27.61
2023-06-29T15:20:41.070Z,27.62
2023-06-29T15:21:41.065Z,27.64
2023-06-29T15:22:42.044Z,27.61
2023-06-29T15:23:41.041Z,27.62
2023-06-29T15:24:42.037Z,27.59
2023-06-29T15:25:42.136Z,27.62
2023-06-29T15:26:42.091Z,27.61
2023-06-29T15:27:42.023Z,27.64
2023-06-29T15:28:42.005Z,27.59
2023-06-29T15:29:41.012Z,27.62
2023-06-29T15:30:52.860Z,27.61
2023-06-29T15:31:42.029Z,27.59
2023-06-29T15:32:42.045Z,27.56
2023-06-29T15:33:41.980Z,27.61
2023-06-29T15:34:40.982Z,27.59
2023-06-29T15:35:40.981Z,27.59
2023-06-29T15:36:40.963Z,27.59
2023-06-29T15:37:41.957Z,27.61
2023-06-29T15:38:40.933Z,27.58
2023-06-29T15:40:40.953Z,27.58
2023-06-29T15:41:40.929Z,27.58
2023-06-29T15:42:41.946Z,27.56
2023-06-29T15:43:41.904Z,27.56
2023-06-29T15:44:41.919Z,27.56
2023-06-29T15:45:40.889Z,27.54
2023-06-29T15:46:41.895Z,27.56
2023-06-29T15:47:40.951Z,27.55
2023-06-29T15:48:40.954Z,27.56
2023-06-29T15:49:41.888Z,27.58
2023-06-29T15:50:41.862Z,27.54
2023-06-29T15:51:41.865Z,27.55
2023-06-29T15:52:43.178Z,27.58
2023-06-29T15:53:40.837Z,27.55
2023-06-29T15:54:41.878Z,27.56
2023-06-29T15:55:41.869Z,27.58
2023-06-29T15:56:41.931Z,27.55
2023-06-29T15:57:40.938Z,27.55
2023-06-29T15:58:42.284Z,27.56
2023-06-29T15:59:40.966Z,27.55
2023-06-29T16:00:40.993Z,27.55
2023-06-29T16:01:41.023Z,27.54
2023-06-29T16:02:42.488Z,27.55
2023-06-29T16:03:41.243Z,27.55
2023-06-29T16:04:42.106Z,27.55
2023-06-29T16:05:41.110Z,27.55
2023-06-29T16:06:41.124Z,27.54
2023-06-29T16:07:41.255Z,27.55
2023-06-29T16:08:42.232Z,27.52
2023-06-29T16:09:42.216Z,27.55
2023-06-29T16:10:41.260Z,27.54
2023-06-29T16:11:41.278Z,27.52
2023-06-29T16:12:41.284Z,27.54
2023-06-29T16:13:42.368Z,27.54
2023-06-29T16:14:42.362Z,27.55
2023-06-29T16:15:42.379Z,27.54
2023-06-29T16:16:42.426Z,27.54
2023-06-29T16:17:42.452Z,27.56
2023-06-29T16:18:41.450Z,27.55
2023-06-29T16:19:42.485Z,27.54
2023-06-29T16:20:41.517Z,27.55
2023-06-29T16:21:41.530Z,27.54
2023-06-29T16:22:41.549Z,27.52
2023-06-29T16:23:41.551Z,27.52
2023-06-29T16:24:41.565Z,27.52
2023-06-29T16:25:41.601Z,27.55
2023-06-29T16:26:42.622Z,27.54
2023-06-29T16:27:41.672Z,27.55
2023-06-29T16:28:42.684Z,27.52
2023-06-29T16:29:41.691Z,27.52
2023-06-29T16:30:41.766Z,27.52
2023-06-29T16:31:44.155Z,27.51
2023-06-29T16:32:41.780Z,27.52
2023-06-29T16:33:41.736Z,27.52
2023-06-29T16:34:41.724Z,27.52
2023-06-29T16:35:41.718Z,27.52
2023-06-29T16:36:41.738Z,27.49
2023-06-29T16:37:41.742Z,27.52
2023-06-29T16:38:42.690Z,27.48
2023-06-29T16:39:41.684Z,27.51
2023-06-29T16:40:42.695Z,27.49
2023-06-29T16:41:42.689Z,27.48
2023-06-29T16:42:42.719Z,27.48
2023-06-29T16:43:42.680Z,27.48
2023-06-29T16:44:42.667Z,27.49
2023-06-29T16:45:41.656Z,27.47
2023-06-29T16:46:41.680Z,27.51
2023-06-29T16:47:42.792Z,27.48
2023-06-29T16:48:41.618Z,27.49
2023-06-29T16:49:42.610Z,27.48
2023-06-29T16:50:41.660Z,27.48
2023-06-29T16:51:42.638Z,27.48
2023-06-29T16:52:42.602Z,27.48
2023-06-29T16:53:41.601Z,27.49
2023-06-29T16:54:41.581Z,27.47
2023-06-29T16:55:41.573Z,27.47
2023-06-29T16:56:42.580Z,27.47
2023-06-29T16:57:41.640Z,27.49
2023-06-29T16:58:42.590Z,27.48
2023-06-29T16:59:41.543Z,27.48
2023-06-29T17:00:41.555Z,27.45
2023-06-29T17:01:41.588Z,27.47
2023-06-29T17:02:42.600Z,27.45
2023-06-29T17:03:42.613Z,27.47
2023-06-29T17:04:41.513Z,27.47
2023-06-29T17:05:41.509Z,27.44
2023-06-29T17:06:42.484Z,27.44
2023-06-29T17:07:42.516Z,27.45
2023-06-29T17:08:42.477Z,27.47
2023-06-29T17:09:42.477Z,27.45
2023-06-29T17:10:41.473Z,27.44
2023-06-29T17:11:41.454Z,27.44
2023-06-29T17:12:41.510Z,27.44
2023-06-29T17:13:42.434Z,27.45
2023-06-29T17:14:42.435Z,27.44
2023-06-29T17:15:41.637Z,27.45
2023-06-29T17:16:43.582Z,27.42
2023-06-29T17:17:41.667Z,27.45
2023-06-29T17:18:41.624Z,27.42
2023-06-29T17:19:41.639Z,27.42
2023-06-29T17:20:42.690Z,27.44
2023-06-29T17:21:42.752Z,27.44
2023-06-29T17:22:41.805Z,27.42
2023-06-29T17:23:42.834Z,27.42
2023-06-29T17:24:42.867Z,27.41
2023-06-29T17:25:43.075Z,27.42
2023-06-29T17:26:42.960Z,27.42
2023-06-29T17:27:43.001Z,27.41
2023-06-29T17:28:42.054Z,27.42
2023-06-29T17:29:42.070Z,27.41
2023-06-29T17:32:01.370Z,27.37
2023-06-29T17:33:02.185Z,27.38
2023-06-29T17:34:01.078Z,27.38
2023-06-29T17:35:01.090Z,27.38
2023-06-29T17:36:01.114Z,27.38
2023-06-29T17:37:01.056Z,27.38
2023-06-29T17:38:02.018Z,27.40
2023-06-29T17:39:01.055Z,27.40
2023-06-29T17:40:01.049Z,27.40
2023-06-29T17:41:01.013Z,27.38
2023-06-29T17:42:02.030Z,27.40
2023-06-29T17:43:01.000Z,27.38
2023-06-29T17:44:01.046Z,27.40
2023-06-29T17:45:02.053Z,27.40
2023-06-29T17:46:01.978Z,27.38
2023-06-29T17:47:02.015Z,27.37
2023-06-29T17:48:01.109Z,27.40
2023-06-29T17:49:02.129Z,27.38
2023-06-29T17:50:02.161Z,27.37
2023-06-29T17:51:01.237Z,27.40
2023-06-29T17:52:01.182Z,27.37
2023-06-29T17:53:02.206Z,27.37
2023-06-29T17:54:02.259Z,27.37
2023-06-29T17:55:02.308Z,27.37
2023-06-29T17:56:04.036Z,27.37
2023-06-29T17:57:01.295Z,27.37
2023-06-29T17:58:01.290Z,27.35
2023-06-29T17:59:02.278Z,27.37
2023-06-29T18:00:02.277Z,27.35
2023-06-29T18:01:01.249Z,27.38
2023-06-29T18:02:02.387Z,27.37
2023-06-29T18:03:02.302Z,27.35
2023-06-29T18:04:02.425Z,27.34